Latest Coastal Weather Observations for East Sale

IDV60701

Issued at 5:25 pm EDT Wednesday 26 November 2014 (issued every 10 minutes, with the page automatically refreshed every 10 minutes)

About coastal observations | Map of coastal stations | Coastal observations for VIC | Marine services | Other Formats
Station Details ID: 085072 Name: EAST SALE AIRPORT Lat: -38.12 Lon: 147.13 Height: 4.6 m
Data from the previous 72 hours. | See also: Recent months at East Sale
Date/Time
EDT
Temp

°C
Wind Pressure Rain
since 9am
mm
Weather Cloud Vis
km
Sea
Height
m
Swell
Dir
 
Speed
knots
Gust
knots
hPa Trend Height
m
Period
s
Dir
26/05:00pm 15.6 SSW 14 18 1020.7 - 0.0 - Partly cloudy 10 - - - -
26/04:30pm 18.0 WSW 15 22 1020.3 - 0.0 - Partly cloudy 10 - - - -
26/04:00pm 18.0 WSW 17 22 1020.4 - 0.0 - Mostly cloudy 10 - - - -
26/03:30pm 19.4 W 16 22 1020.3 - 0.0 - Partly cloudy 10 - - - -
26/03:05pm 19.4 WSW 15 25 1020.1 - 0.0 - Mostly clear 10 - - - -
26/03:00pm 18.7 WSW 13 21 1020.1 R 0.0 Fine Mostly cloudy 30 - - - -
26/02:30pm 18.2 WSW 15 24 1020.2 - 0.0 - Mostly clear 10 - - - -
26/02:00pm 18.5 WSW 15 22 1020.3 - 0.0 - Mostly clear 10 - - - -
26/01:30pm 17.4 WSW 15 22 1020.5 - 0.0 - Partly cloudy 10 - - - -
26/01:00pm 17.1 WSW 16 25 1020.5 - 0.0 - Mostly clear 10 - - - -
26/12:30pm 17.6 W 16 21 1020.6 - 0.0 - Mostly clear 10 - - - -
26/12:00pm 16.9 W 17 22 1020.7 R 0.0 - Mostly clear 10 - - - -
26/11:30am 17.5 W 17 22 1020.6 - 0.0 - - 10 - - - -
26/11:00am 17.1 W 16 22 1020.5 - 0.0 - Mostly clear 10 - - - -
26/10:30am 15.9 WSW 15 20 1020.6 - 0.0 - Mostly clear 10 - - - -
26/10:00am 15.6 W 13 20 1020.6 - 0.0 - Partly cloudy 10 - - - -
26/09:30am 14.8 WSW 17 22 1020.7 - 0.0 - Partly cloudy 10 - - - -
26/09:00am 14.2 W 14 23 1020.9 R 0.0 Haze Mostly cloudy 20 - - - -
26/08:30am 13.1 WNW 6 8 1020.9 - 0.0 - - 10 - - - -
26/08:00am 12.0 WNW 5 9 1020.6 - 0.0 - - 10 - - - -
26/07:30am 11.1 NW 3 4 1020.3 - 0.0 - - 10 - - - -
26/07:00am 10.5 CALM 0 4 1020.2 - 0.0 - - 10 - - - -
26/06:30am 9.8 NW 4 5 1020.1 - 0.0 - - 10 - - - -
26/06:00am 9.9 WSW 5 7 1019.7 R 0.0 - Mostly cloudy 10 - - - -
26/05:30am 9.6 WNW 7 8 1019.5 - 0.0 - - 10 - - - -
26/05:00am 9.0 W 6 7 1019.3 - 0.0 - - 10 - - - -
26/04:30am 8.4 W 4 8 1019.3 - 0.0 - - 10 - - - -
26/04:00am 8.9 W 2 5 1019.5 - 0.0 - - 10 - - - -
26/03:30am 10.3 NW 5 6 1019.5 - 0.0 - - 10 - - - -
26/03:00am 11.1 W 8 11 1019.5 S 0.0 - - 10 - - - -
26/02:30am 11.0 W 8 11 1019.7 - 0.0 - - 10 - - - -
26/02:00am 10.7 W 8 11 1020.0 - 0.0 - - 10 - - - -
26/01:30am 11.2 W 9 10 1020.2 - 0.0 - - 10 - - - -
26/01:00am 11.4 W 6 8 1020.5 - 0.0 - - 10 - - - -
26/12:30am 12.2 WSW 7 11 1020.7 - 0.0 - - 10 - - - -
26/12:00am 12.4 WSW 9 12 1020.6 R 0.0 - - 10 - - - -
 
Date/Time
EDT
Temp

°C
Wind Pressure Rain
since 9am
mm
Weather Cloud Vis
km
Sea
Height
m
Swell
Dir
 
Speed
knots
Gust
knots
hPa Trend Height
m
Period
s
Dir
25/11:30pm 12.7 WSW 13 19 1020.6 - 0.0 - - 10 - - - -
25/11:00pm 13.0 WSW 14 19 1020.7 - 0.0 - - 10 - - - -
25/10:30pm 13.1 WSW 13 19 1020.6 - 0.0 - - 10 - - - -
25/10:00pm 13.4 WSW 13 18 1020.5 - 0.0 - - 10 - - - -
25/09:30pm 13.8 WSW 13 18 1020.2 - 0.0 - - 10 - - - -
25/09:00pm 14.4 WSW 12 16 1019.8 R 0.0 - - 10 - - - -
25/08:30pm 15.1 SW 13 18 1019.2 - 0.0 - - 10 - - - -
25/08:00pm 16.0 WSW 13 19 1018.7 - 0.0 - - 10 - - - -
25/07:30pm 16.9 SW 13 19 1018.4 - 0.0 - - 10 - - - -
25/07:00pm 17.7 WSW 15 20 1017.9 - 0.0 - - 10 - - - -
25/06:30pm 18.6 WSW 15 25 1017.5 - 0.0 - - 10 - - - -
25/06:00pm 18.5 WSW 18 27 1017.2 F 0.0 - - 10 - - - -
25/05:52pm 19.2 WSW 17 27 1017.2 - 0.0 - - 10 - - - -
25/05:30pm 19.3 WSW 17 24 1017.2 - 0.0 - Partly cloudy 10 - - - -
25/05:00pm 19.2 WSW 17 27 1017.2 - 0.0 - Mostly clear 10 - - - -
25/04:30pm 19.7 WSW 19 25 1017.3 - 0.0 - Mostly clear 10 - - - -
25/04:00pm 19.5 WSW 19 26 1017.2 - 0.0 - Mostly clear 10 - - - -
25/03:30pm 19.1 W 22 28 1017.4 - 0.0 - Mostly clear 10 - - - -
25/03:00pm 19.0 W 22 30 1017.4 R 0.0 Fine Partly cloudy 30 - - - -
25/02:37pm 18.0 W 22 32 1017.4 - 0.0 - Partly cloudy 10 - - - -
25/02:30pm 19.1 W 22 30 1017.5 - 0.0 - Partly cloudy 10 - - - -
25/02:00pm 18.2 W 20 29 1017.7 - 0.0 - Mostly clear 10 - - - -
25/01:39pm 18.2 W 20 30 1017.5 - 0.0 - Partly cloudy 10 - - - -
25/01:30pm 17.6 W 21 28 1017.6 - 0.0 - Mostly clear 10 - - - -
25/01:20pm 17.1 W 22 26 1017.7 - 0.0 - Partly cloudy 10 - - - -
25/01:00pm 15.8 WSW 18 28 1017.8 - 0.0 - Partly cloudy 10 - - - -
25/12:30pm 17.5 W 18 27 1017.3 - 0.0 - Partly cloudy 10 - - - -
25/12:00pm 16.4 W 20 27 1017.6 R 0.0 - Cloudy 10 - - - -
25/11:49am 15.7 W 20 30 1017.6 - 0.0 - Partly cloudy 10 - - - -
25/11:30am 17.1 WSW 20 27 1017.2 - 0.0 - Partly cloudy 10 - - - -
25/11:00am 15.3 W 22 31 1017.1 - 0.0 - Mostly clear 10 - - - -
25/10:30am 15.6 W 20 29 1016.9 - 0.0 - Partly cloudy 10 - - - -
25/10:00am 15.2 W 20 29 1016.6 - 0.0 - Partly cloudy 10 - - - -
25/09:41am 14.8 W 19 29 1016.5 - 0.0 - Mostly cloudy 10 - - - -
25/09:30am 15.5 W 21 27 1016.3 - 0.0 - Partly cloudy 10 - - - -
25/09:00am 14.6 W 19 28 1016.1 R 15.2 Fine Partly cloudy 30 - - - -
25/08:30am 14.7 W 21 31 1015.5 - 15.0 - Partly cloudy 10 - - - -
25/08:24am 14.5 W 20 31 1015.4 - 15.0 - Mostly clear 10 - - - -
25/08:00am 14.0 W 19 28 1015.1 - 15.0 - Mostly clear 10 - - - -
25/07:36am 13.3 W 16 27 1015.1 - 15.0 - Partly cloudy 10 - - - -
25/07:30am 13.4 W 14 20 1015.1 - 15.0 - Partly cloudy 10 - - - -
25/07:00am 12.7 WNW 12 17 1014.8 - 15.0 - Mostly clear 10 - - - -
25/06:30am 11.7 W 13 19 1014.3 - 15.0 - - 10 - - - -
25/06:00am 11.2 W 16 22 1013.5 R 15.0 - - 10 - - - -
25/05:30am 10.8 WNW 11 15 1013.3 - 15.0 - - 10 - - - -
25/05:00am 10.4 WNW 8 11 1013.0 - 15.0 - - 10 - - - -
25/04:30am 10.7 W 9 14 1012.9 - 15.0 - Partly cloudy 10 - - - -
25/04:00am 11.2 W 11 14 1012.6 - 15.0 - - 10 - - - -
25/03:30am 11.2 W 10 14 1012.6 - 15.0 - - 10 - - - -
25/03:00am 11.9 W 17 24 1012.3 R 15.0 - Partly cloudy 10 - - - -
25/02:30am 12.2 W 15 19 1012.1 - 15.0 - - 10 - - - -
25/02:00am 12.6 W 16 22 1011.9 - 15.0 - Partly cloudy 10 - - - -
25/01:30am 12.5 W 12 17 1011.9 - 15.0 - Partly cloudy 10 - - - -
25/01:03am 13.0 W 17 27 1011.8 - 15.0 - Partly cloudy 10 - - - -
25/01:00am 13.1 W 16 23 1011.7 - 15.0 - Partly cloudy 10 - - - -
25/12:30am 12.7 W 11 14 1011.9 - 15.0 - Cloudy 10 - - - -
25/12:00am 13.1 W 11 17 1011.6 R 15.0 - Cloudy 10 - - - -
 
Date/Time
EDT
Temp

°C
Wind Pressure Rain
since 9am
mm
Weather Cloud Vis
km
Sea
Height
m
Swell
Dir
 
Speed
knots
Gust
knots
hPa Trend Height
m
Period
s
Dir
24/11:30pm 13.2 W 14 21 1011.5 - 15.0 - Cloudy 10 - - - -
24/11:00pm 13.8 W 13 18 1011.7 - 15.0 - Partly cloudy 10 - - - -
24/10:30pm 14.2 W 15 20 1011.5 - 15.0 - Partly cloudy 10 - - - -
24/10:00pm 15.2 W 13 19 1010.8 - 15.0 - Partly cloudy 10 - - - -
24/09:30pm 15.5 W 8 11 1010.2 - 15.0 - Partly cloudy 10 - - - -
24/09:00pm 15.8 SW 4 6 1009.5 R 15.0 - Cloudy 10 - - - -
24/08:42pm 15.8 WSW 7 10 1009.1 - 15.0 - Partly cloudy 10 - - - -
24/08:30pm 15.9 SW 9 11 1008.6 - 15.0 - Partly cloudy 10 - - - -
24/08:00pm 16.7 WSW 13 19 1008.1 - 15.0 - Partly cloudy 10 - - - -
24/07:56pm 16.7 W 14 21 1007.9 - 15.0 - Partly cloudy 10 - - - -
24/07:46pm 16.9 W 15 19 1007.6 - 15.0 - Partly cloudy 10 - - - -
24/07:30pm 17.5 W 12 17 1007.1 - 14.8 - Partly cloudy 10 - - - -
24/07:13pm 17.6 W 5 6 1006.8 - 14.6 - Partly cloudy 10 - - - -
24/07:00pm 17.4 WSW 4 6 1006.8 - 14.6 - Partly cloudy 10 - - - -
24/06:30pm 17.4 N 3 5 1005.8 - 14.6 - Partly cloudy 10 - - - -
24/06:06pm 16.9 NNE 5 7 1005.3 - 14.6 - Partly cloudy 10 - - - -
24/06:00pm 16.9 N 4 7 1005.6 F 14.6 Recent precip. Mostly cloudy 10 - - - -
24/05:31pm 17.0 NW 5 6 1006.3 - 12.4 - Partly cloudy 6 - - - -
24/05:30pm 17.0 NW 4 6 1006.4 - 12.2 - Partly cloudy 7 - - - -
24/05:00pm 16.8 NE 12 16 1005.1 - 10.0 - Mostly clear 10 - - - -
24/04:30pm 16.4 ENE 10 11 1005.7 - 8.8 Showers Partly cloudy 5 - - - -
24/04:23pm 16.4 ENE 9 11 1006.0 - 8.2 Showers Partly cloudy 7 - - - -
24/04:12pm 16.4 NE 10 11 1006.8 - 7.4 Thunderstorm Mostly clear 4 - - - -
24/04:00pm 16.5 N 3 7 1008.4 - 6.6 - Mostly clear 2 - - - -
24/03:49pm 16.8 ENE 2 5 1008.3 - 3.6 Showers Mostly clear 4 - - - -
24/03:30pm 17.0 E 8 10 1007.3 - 1.6 Showers Mostly clear 5 - - - -
24/03:25pm 17.0 E 7 10 1007.1 - 1.4 Showers Partly cloudy 4 - - - -
24/03:04pm 17.9 E 9 11 1007.5 - 0.0 - Partly cloudy 10 - - - -
24/03:00pm 18.3 E 9 11 1007.3 F 0.0 Rain Mostly cloudy 20 - - - -
24/02:30pm 18.8 ESE 9 12 1007.7 - 0.0 - Partly cloudy 10 - - - -
24/02:28pm 18.7 ESE 9 12 1007.8 - 0.0 - Partly cloudy 10 - - - -
24/02:00pm 18.6 SE 7 9 1008.4 - 0.0 - Partly cloudy 10 - - - -
24/01:30pm 19.1 S 10 13 1008.5 - 0.0 - Partly cloudy 10 - - - -
24/01:00pm 19.6 S 10 14 1008.8 - 0.0 - Partly cloudy 10 - - - -
24/12:30pm 20.0 SSW 10 15 1009.0 - 0.0 - Partly cloudy 10 - - - -
24/12:00pm 20.2 SW 7 11 1009.2 R 0.0 - Mostly clear 10 - - - -
24/11:30am 19.5 SW 10 13 1009.3 - 0.0 - Partly cloudy 10 - - - -
24/11:00am 18.2 SSW 9 11 1009.3 - 0.0 - Cloudy 10 - - - -
24/10:30am 17.9 ESE 5 6 1008.3 - 0.0 - Partly cloudy 10 - - - -
24/10:00am 17.8 ENE 4 6 1008.8 - 0.0 - - 10 - - - -
24/09:30am 17.4 NE 7 9 1008.8 - 0.0 - - 10 - - - -
24/09:00am 16.8 NNE 3 5 1009.6 F 0.0 Haze Mostly cloudy 25 - - - -
24/08:30am 16.2 N 2 4 1009.7 - 0.0 - - 10 - - - -
24/08:00am 15.6 NW 3 4 1010.2 - 0.0 - - 10 - - - -
24/07:30am 15.2 NW 4 5 1010.1 - 0.0 - - 10 - - - -
24/07:00am 14.2 WNW 1 4 1009.8 - 0.0 - - 10 - - - -
24/06:30am 13.5 NNW 2 5 1010.3 - 0.0 - - 10 - - - -
24/06:00am 13.6 NE 5 6 1010.4 F 0.0 - Mostly clear 10 - - - -
24/05:30am 13.5 ENE 4 5 1010.2 - 0.0 - - 10 - - - -
24/05:00am 13.3 CALM 0 0 1010.8 - 0.0 - - 10 - - - -
24/04:30am 13.4 NNE 3 4 1010.8 - 0.0 - - 10 - - - -
24/04:00am 14.4 SE 5 6 1010.8 - 0.0 - - 10 - - - -
24/03:30am 14.6 SE 6 7 1011.3 - 0.0 - - 10 - - - -
24/03:00am 15.4 SSE 6 8 1011.6 F 0.0 - - 10 - - - -
24/02:30am 14.8 CALM 0 3 1012.1 - 0.0 - - 10 - - - -
24/02:00am 14.8 ENE 5 6 1012.9 - 0.0 - - 10 - - - -
24/01:30am 14.8 ENE 5 6 1013.8 - 0.0 - - 10 - - - -
24/01:00am 15.2 NNE 4 6 1014.0 - 0.0 - - 10 - - - -
24/12:30am 15.0 ENE 5 6 1013.9 - 0.0 - - 10 - - - -
24/12:00am 15.0 ENE 5 6 1014.2 F 0.0 - Cloudy 10 - - - -
 
Date/Time
EDT
Temp

°C
Wind Pressure Rain
since 9am
mm
Weather Cloud Vis
km
Sea
Height
m
Swell
Dir
 
Speed
knots
Gust
knots
hPa Trend Height
m
Period
s
Dir
23/11:30pm 14.7 ENE 5 6 1014.5 - 0.0 - - 10 - - - -
23/11:00pm 15.2 E 7 8 1014.5 - 0.0 - - 10 - - - -
23/10:30pm 14.0 ENE 5 6 1015.6 - 0.0 - - 10 - - - -
23/10:00pm 14.2 NE 7 8 1015.6 - 0.0 - - 10 - - - -
23/09:30pm 14.5 NNE 5 7 1015.8 - 0.0 - Partly cloudy 10 - - - -
23/09:00pm 14.6 E 6 7 1015.5 R 0.0 - Cloudy 10 - - - -
23/08:30pm 15.6 ESE 5 6 1015.3 - 0.0 - - 10 - - - -
23/08:00pm 16.1 ESE 6 7 1015.1 - 0.0 - - 10 - - - -
23/07:30pm 17.0 ESE 7 8 1014.7 - 0.0 - - 10 - - - -
23/07:00pm 17.1 SE 8 10 1014.4 - 0.0 - - 10 - - - -
23/06:30pm 17.8 SE 9 11 1013.8 - 0.0 - - 10 - - - -
23/06:00pm 17.9 SE 10 14 1013.4 R 0.0 - - 10 - - - -
23/05:30pm 18.4 SE 12 15 1013.0 - 0.0 - - 10 - - - -

Other Formats:

Comma delimited format used in spreadsheet applications
http://www.bom.gov.au/fwo/IDV60701/IDV60701.94907.axf

JavaScript Object Notation format (JSON) in row-major order
http://www.bom.gov.au/fwo/IDV60701/IDV60701.94907.json